createdAt,value
2022-07-28T04:01:31.847Z,17.25
2022-07-28T04:04:00.834Z,17.36
2022-07-28T04:06:30.309Z,17.47
2022-07-28T04:08:59.526Z,17.56
2022-07-28T04:11:29.529Z,17.61
2022-07-28T04:13:58.754Z,17.67
2022-07-28T04:16:28.077Z,17.75
2022-07-28T04:18:56.484Z,17.82
2022-07-28T04:21:26.117Z,17.86
2022-07-28T04:24:01.419Z,17.93
2022-07-28T04:26:30.601Z,17.97
2022-07-28T04:28:58.968Z,18.02
2022-07-28T04:31:32.821Z,18.05
2022-07-28T04:34:01.805Z,18.04
2022-07-28T04:36:32.570Z,18.00
2022-07-28T04:39:04.264Z,17.90
2022-07-28T04:41:33.515Z,17.84
2022-07-28T04:44:03.026Z,17.88
2022-07-28T04:46:32.362Z,17.91
2022-07-28T04:49:01.644Z,17.89
2022-07-28T04:51:30.981Z,17.92
2022-07-28T04:53:59.399Z,17.94
2022-07-28T04:56:28.001Z,17.96
2022-07-28T04:58:58.855Z,17.97
2022-07-28T05:01:29.316Z,17.99
2022-07-28T05:03:57.982Z,18.01
2022-07-28T05:06:27.223Z,18.05
2022-07-28T05:08:56.308Z,18.09
2022-07-28T05:11:25.677Z,18.11
2022-07-28T05:13:54.880Z,18.14
2022-07-28T05:16:24.014Z,18.17
2022-07-28T05:18:53.616Z,18.20
2022-07-28T05:21:23.085Z,18.25
2022-07-28T05:23:52.371Z,18.32
2022-07-28T05:26:21.913Z,18.37
2022-07-28T05:28:51.414Z,18.44
2022-07-28T05:31:20.639Z,18.49
2022-07-28T05:33:50.144Z,18.52
2022-07-28T05:36:21.144Z,18.60
2022-07-28T05:38:50.545Z,18.67
2022-07-28T05:41:19.825Z,18.77
2022-07-28T05:43:49.162Z,18.87
2022-07-28T05:46:18.402Z,18.99
2022-07-28T05:48:47.911Z,19.11
2022-07-28T05:51:17.189Z,19.23
2022-07-28T05:53:46.157Z,19.39
2022-07-28T05:56:15.474Z,19.49
2022-07-28T05:58:44.866Z,19.59
2022-07-28T06:01:14.225Z,19.73
2022-07-28T06:03:43.718Z,19.85
2022-07-28T06:06:15.806Z,19.93
2022-07-28T06:08:49.074Z,19.97
2022-07-28T06:11:22.817Z,20.05
2022-07-28T06:13:53.865Z,20.06
2022-07-28T06:16:23.623Z,20.14
2022-07-28T06:18:53.295Z,20.23
2022-07-28T06:21:25.522Z,20.25
2022-07-28T06:23:54.831Z,20.33
2022-07-28T06:26:24.016Z,20.36
2022-07-28T06:28:53.436Z,20.36
2022-07-28T06:31:24.684Z,20.42
2022-07-28T06:33:55.581Z,20.49
2022-07-28T06:36:24.630Z,20.54
2022-07-28T06:38:53.739Z,20.62
2022-07-28T06:41:22.911Z,20.71
2022-07-28T06:43:53.024Z,20.83
2022-07-28T06:46:23.506Z,20.99
2022-07-28T06:48:52.750Z,21.19
2022-07-28T06:51:23.881Z,21.38
2022-07-28T06:53:53.210Z,21.57
2022-07-28T06:56:22.878Z,21.71
2022-07-28T06:58:52.714Z,21.73
2022-07-28T07:01:21.264Z,21.72
2022-07-28T07:03:50.370Z,21.75
2022-07-28T07:06:19.916Z,21.77
2022-07-28T07:08:48.988Z,21.80
2022-07-28T07:11:17.445Z,21.87
2022-07-28T07:13:46.901Z,21.97
2022-07-28T07:16:17.083Z,22.01
2022-07-28T07:18:45.952Z,22.11
2022-07-28T07:21:15.685Z,22.11
2022-07-28T07:23:44.224Z,22.09
2022-07-28T07:26:13.964Z,22.02
2022-07-28T07:28:43.248Z,21.99
2022-07-28T07:31:12.549Z,21.94
2022-07-28T07:33:41.687Z,21.94
2022-07-28T07:36:10.779Z,22.05
2022-07-28T07:38:39.807Z,22.16
2022-07-28T07:41:08.967Z,22.17
2022-07-28T07:43:38.445Z,22.19
2022-07-28T07:46:08.263Z,22.12
2022-07-28T07:48:37.468Z,22.09
2022-07-28T07:51:08.804Z,22.18
2022-07-28T07:53:44.833Z,22.34
2022-07-28T07:56:15.114Z,22.57
2022-07-28T07:58:44.290Z,22.80
2022-07-28T08:01:14.312Z,23.03
2022-07-28T08:03:43.972Z,23.15
2022-07-28T08:06:12.825Z,23.15
2022-07-28T08:08:48.642Z,23.31
2022-07-28T08:11:17.472Z,23.52
2022-07-28T08:13:46.354Z,23.69
2022-07-28T08:16:15.260Z,23.79
2022-07-28T08:18:45.164Z,23.75
2022-07-28T08:21:14.317Z,23.76
2022-07-28T08:23:43.900Z,23.78
2022-07-28T08:26:12.980Z,23.72
2022-07-28T08:28:42.118Z,23.77
2022-07-28T08:31:11.496Z,23.81
2022-07-28T08:33:54.128Z,23.77
2022-07-28T08:36:24.729Z,23.84
2022-07-28T08:38:53.336Z,23.85
2022-07-28T08:41:42.118Z,23.91
2022-07-28T08:44:18.803Z,24.03
2022-07-28T08:46:49.808Z,24.12
2022-07-28T08:49:19.315Z,24.14
2022-07-28T08:51:50.675Z,24.07
2022-07-28T08:54:28.954Z,24.06
2022-07-28T08:56:59.988Z,24.01
2022-07-28T08:59:30.113Z,24.08
2022-07-28T09:01:59.836Z,24.17
2022-07-28T09:04:29.377Z,24.22
2022-07-28T09:06:58.369Z,24.22
2022-07-28T09:09:27.479Z,24.05
2022-07-28T09:11:56.723Z,23.96
2022-07-28T09:14:26.819Z,23.95
2022-07-28T09:16:56.663Z,23.99
2022-07-28T09:19:25.934Z,24.06
2022-07-28T09:22:04.599Z,24.16
2022-07-28T09:24:41.492Z,24.31
2022-07-28T09:27:13.804Z,24.41
2022-07-28T09:29:59.365Z,24.37
2022-07-28T09:32:28.469Z,24.20
2022-07-28T09:34:57.867Z,24.02
2022-07-28T09:37:28.841Z,23.94
2022-07-28T09:40:10.765Z,24.00
2022-07-28T09:42:50.823Z,24.07
2022-07-28T09:45:28.403Z,24.00
2022-07-28T09:48:18.007Z,23.93
2022-07-28T09:50:47.013Z,23.97
2022-07-28T09:53:24.182Z,24.04
2022-07-28T09:56:02.136Z,24.09
2022-07-28T09:58:32.450Z,24.13
2022-07-28T10:01:14.316Z,24.07
2022-07-28T10:03:53.365Z,24.00
2022-07-28T10:06:41.386Z,24.01
2022-07-28T10:09:14.961Z,23.97
2022-07-28T10:11:51.231Z,23.99
2022-07-28T10:14:34.822Z,24.02
2022-07-28T10:17:06.420Z,24.03
2022-07-28T10:19:36.928Z,24.05
2022-07-28T10:22:08.133Z,23.94
2022-07-28T10:24:39.685Z,24.01
2022-07-28T10:27:09.364Z,24.19
2022-07-28T10:29:41.065Z,24.45
2022-07-28T10:32:13.515Z,24.66
2022-07-28T10:34:51.830Z,24.71
2022-07-28T10:37:28.590Z,24.65
2022-07-28T10:40:12.332Z,24.51
2022-07-28T10:42:42.097Z,24.40
2022-07-28T10:45:12.651Z,24.32
2022-07-28T10:47:42.777Z,24.23
2022-07-28T10:50:12.803Z,24.20
2022-07-28T10:52:48.863Z,24.19
2022-07-28T10:55:31.848Z,24.17
2022-07-28T10:58:18.174Z,24.27
2022-07-28T11:00:56.709Z,24.42
2022-07-28T11:03:44.902Z,24.59
2022-07-28T11:06:37.539Z,24.69
2022-07-28T11:09:18.817Z,24.76
2022-07-28T11:11:52.242Z,24.82
2022-07-28T11:14:32.961Z,24.91
2022-07-28T11:17:01.825Z,25.02
2022-07-28T11:19:36.755Z,25.15
2022-07-28T11:22:22.743Z,25.24
2022-07-28T11:25:00.162Z,25.22
2022-07-28T11:27:54.908Z,25.26
2022-07-28T11:30:33.994Z,25.17
2022-07-28T11:33:05.020Z,25.01
2022-07-28T11:35:40.269Z,24.93
2022-07-28T11:38:11.820Z,24.97
2022-07-28T11:40:46.311Z,25.06
2022-07-28T11:43:29.944Z,25.07
2022-07-28T11:46:07.744Z,25.12
2022-07-28T11:48:42.103Z,25.16
2022-07-28T11:51:13.714Z,25.15
2022-07-28T11:53:45.824Z,25.13
2022-07-28T11:56:17.178Z,25.08
2022-07-28T11:58:46.361Z,25.08
2022-07-28T12:01:20.694Z,25.13
2022-07-28T12:03:56.235Z,25.19
2022-07-28T12:06:43.891Z,25.20
2022-07-28T12:09:26.102Z,25.26
2022-07-28T12:11:58.957Z,25.35
2022-07-28T12:14:30.644Z,25.35
2022-07-28T12:16:59.920Z,25.29
2022-07-28T12:19:33.050Z,25.22
2022-07-28T12:22:10.177Z,25.10
2022-07-28T12:24:45.705Z,24.94
2022-07-28T12:27:16.939Z,24.75
2022-07-28T12:30:00.622Z,24.60
2022-07-28T12:32:35.957Z,24.41
2022-07-28T12:35:05.945Z,24.20
2022-07-28T12:37:35.077Z,23.99
2022-07-28T12:40:04.156Z,23.90
2022-07-28T12:42:33.460Z,23.90
2022-07-28T12:45:08.069Z,23.94
2022-07-28T12:47:38.483Z,23.88
2022-07-28T12:50:17.798Z,23.78
2022-07-28T12:53:05.097Z,23.67
2022-07-28T12:55:34.824Z,23.60
2022-07-28T12:58:05.284Z,23.65
2022-07-28T13:00:35.941Z,23.75
2022-07-28T13:03:30.132Z,23.90
2022-07-28T13:06:11.130Z,24.00
2022-07-28T13:08:46.000Z,24.00
2022-07-28T13:14:06.442Z,24.10
2022-07-28T13:16:36.976Z,24.17
2022-07-28T13:19:06.391Z,24.27
2022-07-28T13:21:58.434Z,24.35
2022-07-28T13:24:30.499Z,24.39
2022-07-28T13:27:02.414Z,24.43
2022-07-28T13:29:36.280Z,24.47
2022-07-28T13:32:05.911Z,24.49
2022-07-28T13:34:35.524Z,24.52
2022-07-28T13:37:05.319Z,24.63
2022-07-28T13:39:35.245Z,24.68
2022-07-28T13:42:05.456Z,24.72
2022-07-28T13:44:37.324Z,24.72
2022-07-28T13:47:06.783Z,24.67
2022-07-28T13:49:40.930Z,24.63
2022-07-28T13:52:32.937Z,24.57
2022-07-28T13:55:06.587Z,24.53
2022-07-28T13:57:35.722Z,24.47
2022-07-28T14:00:55.715Z,24.44
2022-07-28T14:03:25.372Z,24.38
2022-07-28T14:05:54.522Z,24.42
2022-07-28T14:08:25.203Z,24.41
2022-07-28T14:11:02.043Z,24.42
2022-07-28T14:13:38.198Z,24.42
2022-07-28T14:16:12.437Z,24.44
2022-07-28T14:18:44.012Z,24.54
2022-07-28T14:21:14.276Z,24.61
2022-07-28T14:23:43.635Z,24.61
2022-07-28T14:26:34.990Z,24.59
2022-07-28T14:29:05.038Z,24.59
2022-07-28T14:31:45.570Z,24.61
2022-07-28T14:34:15.633Z,24.58
2022-07-28T14:36:45.279Z,24.55
2022-07-28T14:39:14.585Z,24.41
2022-07-28T14:41:44.944Z,24.29
2022-07-28T14:44:15.635Z,24.24
2022-07-28T14:46:53.280Z,24.15
2022-07-28T14:49:22.830Z,24.07
2022-07-28T14:51:51.361Z,24.03
2022-07-28T14:54:20.680Z,23.94
2022-07-28T14:56:49.633Z,23.94
2022-07-28T14:59:18.669Z,23.90
2022-07-28T15:01:48.833Z,23.89
2022-07-28T15:04:19.152Z,23.96
2022-07-28T15:06:47.707Z,23.96
2022-07-28T15:09:16.977Z,23.94
2022-07-28T15:11:47.922Z,23.96
2022-07-28T15:14:17.059Z,24.03
2022-07-28T15:16:51.449Z,24.10
2022-07-28T15:19:21.577Z,24.17
2022-07-28T15:21:51.097Z,24.22
2022-07-28T15:24:23.276Z,24.24
2022-07-28T15:26:52.611Z,24.26
2022-07-28T15:29:22.354Z,24.28
2022-07-28T15:31:51.545Z,24.36
2022-07-28T15:34:20.318Z,24.41
2022-07-28T15:36:48.912Z,24.43
2022-07-28T15:39:17.931Z,24.42
2022-07-28T15:41:48.048Z,24.40
2022-07-28T15:44:18.150Z,24.43
2022-07-28T15:46:55.242Z,24.43
2022-07-28T15:49:24.458Z,24.36
2022-07-28T15:51:53.096Z,24.25
2022-07-28T15:54:22.222Z,24.13
2022-07-28T15:56:51.494Z,24.05
2022-07-28T15:59:20.275Z,24.02
2022-07-28T16:01:49.088Z,24.01
2022-07-28T16:04:18.668Z,23.99
2022-07-28T16:07:07.731Z,23.98
2022-07-28T16:09:45.619Z,23.95
2022-07-28T16:12:28.200Z,23.91
2022-07-28T16:15:02.925Z,23.83
2022-07-28T16:17:36.781Z,23.78
2022-07-28T16:20:12.031Z,23.74
2022-07-28T16:22:47.154Z,23.75
2022-07-28T16:25:20.751Z,23.73
2022-07-28T16:27:51.398Z,23.71
2022-07-28T16:30:22.352Z,23.67
2022-07-28T16:32:52.363Z,23.65
2022-07-28T16:35:21.767Z,23.66
2022-07-28T16:37:53.384Z,23.70
2022-07-28T16:40:23.409Z,23.68
2022-07-28T16:42:54.511Z,23.63
2022-07-28T16:45:24.894Z,23.59
2022-07-28T16:48:03.867Z,23.55
2022-07-28T16:50:34.748Z,23.50
2022-07-28T16:53:07.424Z,23.42
2022-07-28T16:55:39.632Z,23.36
2022-07-28T16:58:12.206Z,23.24
2022-07-28T17:00:45.414Z,23.18
2022-07-28T17:03:18.430Z,23.16
2022-07-28T17:05:48.100Z,23.12
2022-07-28T17:08:17.063Z,23.08
2022-07-28T17:10:50.141Z,23.02
2022-07-28T17:13:23.014Z,22.96
2022-07-28T17:15:57.340Z,22.91
2022-07-28T17:18:27.658Z,22.89
2022-07-28T17:20:57.904Z,22.85
2022-07-28T17:23:27.458Z,22.81
2022-07-28T17:26:45.739Z,22.77
2022-07-28T17:28:46.073Z,22.70
2022-07-28T17:31:16.184Z,22.64
2022-07-28T17:33:45.692Z,22.60
2022-07-28T17:36:16.509Z,22.57
2022-07-28T17:38:45.843Z,22.53
2022-07-28T17:41:14.768Z,22.47
2022-07-28T17:43:45.744Z,22.40
2022-07-28T17:46:15.213Z,22.36
2022-07-28T17:48:45.086Z,22.32
2022-07-28T17:51:14.202Z,22.28
2022-07-28T17:53:46.395Z,22.21
2022-07-28T17:56:16.715Z,22.13
2022-07-28T17:58:47.616Z,22.08
2022-07-28T18:01:18.293Z,22.00
2022-07-28T18:03:58.203Z,21.94
2022-07-28T18:06:33.091Z,21.89
2022-07-28T18:09:13.048Z,21.83
2022-07-28T18:11:57.961Z,21.77
2022-07-28T18:14:28.942Z,21.71
2022-07-28T18:16:58.811Z,21.64
2022-07-28T18:19:28.982Z,21.57
2022-07-28T18:21:58.163Z,21.48
2022-07-28T18:24:27.789Z,21.41
2022-07-28T18:26:58.824Z,21.36
2022-07-28T18:29:38.144Z,21.32
2022-07-28T18:32:09.833Z,21.27
2022-07-28T18:34:41.785Z,21.22
2022-07-28T18:37:10.563Z,21.19
2022-07-28T18:39:40.026Z,21.16
2022-07-28T18:42:12.235Z,21.13
2022-07-28T18:44:42.552Z,21.11
2022-07-28T18:47:11.164Z,21.08
2022-07-28T18:49:39.881Z,21.02
2022-07-28T18:52:08.553Z,20.96
2022-07-28T18:54:37.413Z,20.91
2022-07-28T18:57:06.835Z,20.85
2022-07-28T18:59:40.020Z,20.79
2022-07-28T19:02:18.860Z,20.74
2022-07-28T19:04:49.113Z,20.68
2022-07-28T19:07:18.529Z,20.60
2022-07-28T19:09:47.128Z,20.54
2022-07-28T19:12:16.182Z,20.49
2022-07-28T19:14:44.973Z,20.42
2022-07-28T19:17:13.542Z,20.37
2022-07-28T19:19:42.912Z,20.32
2022-07-28T19:22:11.777Z,20.28
2022-07-28T19:24:40.555Z,20.23
2022-07-28T19:27:12.092Z,20.19
2022-07-28T19:29:41.338Z,20.15
2022-07-28T19:32:11.551Z,20.09
2022-07-28T19:34:44.541Z,20.04
2022-07-28T19:37:16.893Z,19.98
2022-07-28T19:39:46.236Z,19.92
2022-07-28T19:42:15.316Z,19.88
2022-07-28T19:44:47.903Z,19.83
2022-07-28T19:47:18.258Z,19.80
2022-07-28T19:49:50.503Z,19.73
2022-07-28T19:52:24.205Z,19.66
2022-07-28T19:54:54.487Z,19.62
2022-07-28T19:57:26.188Z,19.59
2022-07-28T20:00:01.119Z,19.55
2022-07-28T20:02:45.198Z,19.50
2022-07-28T20:05:19.036Z,19.46
2022-07-28T20:07:51.639Z,19.41
2022-07-28T20:10:22.713Z,19.35
2022-07-28T20:12:59.296Z,19.31
2022-07-28T20:15:29.389Z,19.25
2022-07-28T20:18:01.611Z,19.21
2022-07-28T20:20:35.028Z,19.17
2022-07-28T20:23:09.643Z,19.12
2022-07-28T20:25:42.193Z,19.10
2022-07-28T20:28:15.237Z,19.06
2022-07-28T20:30:55.002Z,19.01
2022-07-28T20:37:49.688Z,18.87
2022-07-28T20:44:39.755Z,18.78
2022-07-28T20:47:17.824Z,18.73
2022-07-28T20:49:54.782Z,18.68
2022-07-28T20:52:31.948Z,18.64
2022-07-28T20:55:09.460Z,18.58
2022-07-28T20:57:39.806Z,18.57
